Time;durP1;ratioP1;P1;durP2;ratioP2;P2;SDS_P1;SDS_P2;PMS_P1;PMS_P2;Temp;Humidity;BMP_temperature;BMP_pressure;BME280_temperature;BME280_humidity;BME280_pressure;Samples;Min_cycle;Max_cycle;Signal;HPM_P1;HPM_P2
2021/01/10 00:01:26;;;;;;;31.48;21.27;;;;;;;1.12;71.45;99525.20;1790009;79;21039;-39
2021/01/10 00:03:55;;;;;;;29.00;18.00;;;;;;;1.11;71.63;99526.84;1771120;79;21162;-40
2021/01/10 00:06:23;;;;;;;33.63;21.68;;;;;;;1.11;71.52;99527.64;1784992;79;21984;-40
2021/01/10 00:08:51;;;;;;;30.68;20.37;;;;;;;1.12;71.61;99530.53;1800901;79;21174;-40
2021/01/10 00:11:20;;;;;;;29.70;20.32;;;;;;;1.15;71.49;99531.84;1789719;79;21606;-40
2021/01/10 00:13:48;;;;;;;29.67;18.20;;;;;;;1.13;71.58;99532.12;1723603;82;21174;-39
2021/01/10 00:16:17;;;;;;;32.58;21.10;;;;;;;1.15;71.53;99531.84;1738225;80;22163;-40
2021/01/10 00:18:46;;;;;;;31.97;21.17;;;;;;;1.13;71.50;99532.12;1776000;79;21629;-40
2021/01/10 00:21:14;;;;;;;31.75;21.33;;;;;;;1.14;71.59;99535.59;1794825;79;21127;-40
2021/01/10 00:23:42;;;;;;;33.10;21.52;;;;;;;1.14;71.65;99539.59;1797490;79;21281;-39
2021/01/10 00:26:11;;;;;;;33.73;21.68;;;;;;;1.16;71.46;99533.44;1780454;79;21159;-39
2021/01/10 00:28:40;;;;;;;33.95;21.23;;;;;;;1.16;71.45;99544.88;1745348;81;21586;-40
2021/01/10 00:31:09;;;;;;;31.48;20.80;;;;;;;1.17;71.59;99545.14;1754734;80;21151;-40
2021/01/10 00:33:37;;;;;;;35.25;21.80;;;;;;;1.19;71.61;99550.20;1743162;80;21144;-40
2021/01/10 00:36:07;;;;;;;35.28;23.05;;;;;;;1.19;71.71;99548.32;1738356;80;22707;-40
2021/01/10 00:38:35;;;;;;;34.35;22.15;;;;;;;1.19;71.71;99547.52;1768907;81;21222;-40
2021/01/10 00:41:03;;;;;;;35.00;23.02;;;;;;;1.18;71.78;99544.59;1732680;80;21602;-39
2021/01/10 00:43:31;;;;;;;32.03;21.48;;;;;;;1.18;71.72;99546.73;1741257;80;21198;-40
2021/01/10 00:46:00;;;;;;;34.80;22.65;;;;;;;1.15;71.86;99548.66;1710466;82;21175;-39
2021/01/10 00:48:28;;;;;;;35.65;23.05;;;;;;;1.16;71.87;99545.45;1725637;81;21383;-40
2021/01/10 00:50:56;;;;;;;32.70;20.88;;;;;;;1.17;71.84;99538.46;1738871;81;21163;-39
2021/01/10 00:53:25;;;;;;;36.50;23.92;;;;;;;1.16;72.02;99544.88;1736770;81;21036;-39
2021/01/10 00:55:56;;;;;;;36.77;23.42;;;;;;;1.16;72.05;99540.88;1762307;80;21433;-39
2021/01/10 00:58:24;;;;;;;35.65;22.93;;;;;;;1.16;72.07;99544.11;1762103;80;21586;-39
2021/01/10 01:00:53;;;;;;;30.95;20.25;;;;;;;1.16;72.09;99546.22;1757195;80;21206;-40
2021/01/10 01:03:22;;;;;;;35.40;22.37;;;;;;;1.15;72.21;99547.33;1737650;82;21186;-40
2021/01/10 01:05:50;;;;;;;36.00;23.55;;;;;;;1.16;72.26;99547.55;1722849;82;21048;-39
2021/01/10 01:08:18;;;;;;;33.70;20.62;;;;;;;1.17;72.31;99547.81;1749672;80;21538;-40
2021/01/10 01:10:49;;;;;;;36.65;23.52;;;;;;;1.20;72.35;99549.12;1762249;80;21179;-40
2021/01/10 01:13:18;;;;;;;37.58;24.37;;;;;;;1.18;72.42;99548.60;1733818;81;21287;-40
2021/01/10 01:15:52;;;;;;;36.68;23.75;;;;;;;1.17;72.56;99543.80;1779609;79;21597;-39
2021/01/10 01:18:20;;;;;;;39.20;23.00;;;;;;;1.13;72.78;99551.36;1801947;79;21150;-40
2021/01/10 01:20:49;;;;;;;34.55;22.37;;;;;;;1.13;72.86;99544.14;1803084;79;21131;-40
2021/01/10 01:23:18;;;;;;;33.30;21.35;;;;;;;1.13;72.93;99545.48;1749244;79;21135;-40
2021/01/10 01:26:34;;;;;;;35.98;24.25;;;;;;;1.25;72.79;99546.36;1814549;78;23282;-40
2021/01/10 01:29:03;;;;;;;29.57;19.57;;;;;;;1.19;72.85;99537.64;1800916;79;20968;-40
2021/01/10 01:31:33;;;;;;;39.23;25.17;;;;;;;1.19;72.88;99540.31;1800324;79;21199;-39
2021/01/10 01:34:03;;;;;;;38.63;24.20;;;;;;;1.16;72.81;99536.87;1807869;79;20972;-40
2021/01/10 01:36:31;;;;;;;38.80;23.70;;;;;;;1.22;72.63;99537.05;1796643;79;20996;-39
2021/01/10 01:39:01;;;;;;;36.75;23.95;;;;;;;1.20;72.56;99535.23;1776015;80;21040;-39
2021/01/10 01:41:37;;;;;;;;;;;;;;;1.19;72.64;99544.31;1790751;79;21154;-40
2021/01/10 01:44:06;;;;;;;38.23;24.77;;;;;;;1.21;72.64;99534.69;1781607;79;21240;-40
2021/01/10 01:46:36;;;;;;;38.50;25.10;;;;;;;1.15;72.78;99538.52;1777997;79;21548;-40
2021/01/10 01:49:10;;;;;;;38.20;23.50;;;;;;;1.12;72.69;99542.55;1776108;80;21044;-39
2021/01/10 01:51:40;;;;;;;40.15;25.55;;;;;;;1.12;72.79;99541.22;1781062;79;21095;-40
2021/01/10 01:54:09;;;;;;;30.25;19.12;;;;;;;1.12;72.79;99535.87;1776434;79;21118;-40
2021/01/10 01:56:37;;;;;;;41.35;25.95;;;;;;;1.13;72.86;99538.01;1779688;79;22749;-39
2021/01/10 01:59:08;;;;;;;38.00;25.08;;;;;;;1.14;72.88;99543.06;1790345;79;22021;-40
2021/01/10 02:01:38;;;;;;;42.53;24.98;;;;;;;1.15;72.68;99541.98;1779893;79;22492;-40
2021/01/10 02:04:36;;;;;;;40.15;24.65;;;;;;;1.16;72.67;99542.21;1776109;80;21174;-40
2021/01/10 02:07:24;;;;;;;39.70;23.22;;;;;;;1.19;72.71;99544.85;1776209;79;21585;-40
2021/01/10 02:10:06;;;;;;;36.60;24.02;;;;;;;1.18;72.71;99544.06;1781537;79;21275;-40
2021/01/10 02:12:49;;;;;;;42.65;26.55;;;;;;;1.23;72.54;99550.65;1780634;79;21131;-39
2021/01/10 02:15:23;;;;;;;38.42;24.30;;;;;;;1.22;72.59;99553.61;1791047;79;21008;-40
2021/01/10 02:17:53;;;;;;;38.63;24.95;;;;;;;1.19;72.57;99552.33;1796402;79;21447;-40
2021/01/10 02:20:31;;;;;;;38.78;23.52;;;;;;;1.20;72.64;99550.45;1789337;79;21546;-41
2021/01/10 02:23:12;;;;;;;43.13;26.12;;;;;;;1.19;72.67;99552.86;1783077;79;21324;-39
2021/01/10 02:25:45;;;;;;;38.02;23.57;;;;;;;1.24;72.51;99552.24;1776859;79;21163;-40
2021/01/10 02:28:21;;;;;;;36.15;23.70;;;;;;;1.29;72.44;99552.16;1788615;79;21020;-40
2021/01/10 02:30:52;;;;;;;35.70;22.07;;;;;;;1.26;72.48;99548.72;1777276;79;21130;-40
2021/01/10 02:33:41;;;;;;;40.50;24.92;;;;;;;1.27;72.39;99546.84;1794580;79;21166;-40
2021/01/10 02:36:35;;;;;;;37.58;23.38;;;;;;;1.30;72.35;99550.28;1766910;79;22243;-40
2021/01/10 02:39:10;;;;;;;38.65;23.95;;;;;;;1.29;72.30;99548.69;1764828;79;21120;-40
2021/01/10 02:41:50;;;;;;;36.42;23.73;;;;;;;1.24;72.29;99550.91;1769947;79;21562;-39
2021/01/10 02:44:42;;;;;;;39.97;24.20;;;;;;;1.21;72.27;99550.70;1776965;79;21143;-40
2021/01/10 02:47:15;;;;;;;36.80;22.58;;;;;;;1.22;72.37;99550.94;1792733;79;21608;-40
2021/01/10 02:49:43;;;;;;;39.15;25.17;;;;;;;1.25;72.40;99556.50;1764827;79;21392;-40
2021/01/10 02:52:11;;;;;;;38.38;25.08;;;;;;;1.25;72.22;99554.38;1764721;81;21139;-40
2021/01/10 02:54:40;;;;;;;39.23;23.83;;;;;;;1.27;72.30;99557.52;1793716;79;21534;-39
2021/01/10 02:57:15;;;;;;;39.13;25.05;;;;;;;1.28;72.10;99553.23;1772911;79;20969;-39
2021/01/10 02:59:46;;;;;;;39.98;25.70;;;;;;;1.30;72.16;99555.09;1771857;79;21233;-39
2021/01/10 03:02:14;;;;;;;37.03;22.98;;;;;;;1.30;72.07;99556.42;1772938;79;21201;-40
2021/01/10 03:04:43;;;;;;;37.43;24.00;;;;;;;1.29;72.02;99560.17;1787125;79;21416;-40
2021/01/10 03:07:11;;;;;;;36.68;24.57;;;;;;;1.28;72.24;99555.91;1764719;79;21390;-40
2021/01/10 03:09:40;;;;;;;38.75;24.25;;;;;;;1.31;72.14;99551.30;1735586;81;21629;-39
2021/01/10 03:12:25;;;;;;;40.43;25.77;;;;;;;1.33;72.12;99552.89;1720170;82;21205;-40
2021/01/10 03:14:59;;;;;;;33.23;21.65;;;;;;;1.31;72.26;99552.64;1716442;82;22229;-39
2021/01/10 03:17:35;;;;;;;36.05;23.38;;;;;;;1.33;72.19;99555.56;1713498;82;21727;-40
2021/01/10 03:20:07;;;;;;;35.20;21.23;;;;;;;1.33;72.13;99551.55;1733513;82;21186;-40
2021/01/10 03:22:35;;;;;;;43.50;26.15;;;;;;;1.28;72.33;99553.23;1729254;82;21162;-39
2021/01/10 03:25:06;;;;;;;32.98;21.00;;;;;;;1.26;72.25;99555.39;1739038;81;21645;-40
2021/01/10 03:27:35;;;;;;;36.38;22.80;;;;;;;1.26;72.40;99554.06;1720186;82;21211;-40
2021/01/10 03:30:05;;;;;;;33.37;22.50;;;;;;;1.26;72.40;99558.06;1713323;82;21067;-37
2021/01/10 03:32:33;;;;;;;36.03;23.75;;;;;;;1.28;72.33;99557.24;1715457;82;21477;-39
2021/01/10 03:35:07;;;;;;;38.23;24.35;;;;;;;1.29;72.15;99559.37;1712921;83;21047;-39
2021/01/10 03:37:36;;;;;;;38.48;24.67;;;;;;;1.24;72.21;99550.91;1714061;82;21187;-39
2021/01/10 03:40:07;;;;;;;37.42;23.30;;;;;;;1.25;72.28;99550.37;1713599;82;21198;-39
2021/01/10 03:42:35;;;;;;;;;;;;;;;1.22;72.09;99553.61;1724841;82;21138;-39
2021/01/10 03:45:07;;;;;;;36.00;22.22;;;;;;;1.13;72.10;99546.81;1720469;82;20338;-38
2021/01/10 03:47:35;;;;;;;35.28;21.97;;;;;;;1.17;72.16;99557.69;1741321;82;28333;-39
2021/01/10 03:50:05;;;;;;;35.40;23.77;;;;;;;1.18;72.23;99549.94;1733083;82;21158;-38
2021/01/10 03:52:34;;;;;;;28.52;17.87;;;;;;;1.18;72.10;99556.08;1719825;82;21378;-38
2021/01/10 03:55:05;;;;;;;;;;;;;;;1.17;72.17;99558.48;1745116;82;21144;-40
2021/01/10 03:57:36;;;;;;;31.45;21.12;;;;;;;1.18;72.21;99556.61;1739757;82;20196;-39
2021/01/10 04:00:09;;;;;;;40.90;24.87;;;;;;;1.13;72.51;99562.03;1719130;82;21758;-39
2021/01/10 04:02:39;;;;;;;39.18;24.43;;;;;;;1.17;72.37;99566.50;1729888;82;21104;-39
2021/01/10 04:05:09;;;;;;;37.05;24.02;;;;;;;1.19;72.22;99563.55;1741517;82;22009;-39
2021/01/10 04:07:38;;;;;;;38.08;24.35;;;;;;;1.16;72.34;99568.91;1719782;82;21051;-39
2021/01/10 04:10:07;;;;;;;37.25;23.25;;;;;;;1.18;72.40;99567.30;1741460;82;21060;-39
2021/01/10 04:12:36;;;;;;;31.90;18.92;;;;;;;1.18;72.34;99564.09;1729432;82;21179;-40
2021/01/10 04:15:06;;;;;;;39.30;24.02;;;;;;;1.20;72.31;99569.94;1739176;82;21211;-40
2021/01/10 04:17:37;;;;;;;33.63;22.32;;;;;;;1.22;72.42;99566.42;1721802;82;21443;-40
2021/01/10 04:20:07;;;;;;;37.23;23.22;;;;;;;1.24;72.40;99566.93;1713214;82;21174;-40
2021/01/10 04:22:36;;;;;;;34.80;22.48;;;;;;;1.27;72.27;99566.33;1712794;83;21127;-40
2021/01/10 04:25:06;;;;;;;37.23;23.57;;;;;;;1.28;72.16;99569.26;1733086;82;21185;-40
2021/01/10 04:27:34;;;;;;;40.05;24.43;;;;;;;1.27;72.19;99577.55;1725609;82;21230;-39
2021/01/10 04:30:06;;;;;;;34.75;22.35;;;;;;;1.25;72.39;99576.53;1708252;83;21211;-40
2021/01/10 04:32:34;;;;;;;35.08;22.00;;;;;;;1.28;72.37;99583.95;1713017;82;21167;-40
2021/01/10 04:35:05;;;;;;;34.20;22.13;;;;;;;1.29;72.29;99588.21;1712834;83;21605;-40
2021/01/10 04:37:33;;;;;;;;;;;;;;;1.35;72.29;99590.80;1720433;82;21182;-40
2021/01/10 04:40:01;;;;;;;37.90;23.07;;;;;;;1.36;72.29;99587.81;1716697;82;20302;-39
2021/01/10 04:42:29;;;;;;;34.98;22.48;;;;;;;1.28;72.47;99594.63;1712952;82;22958;-40
2021/01/10 04:44:58;;;;;;;37.75;24.32;;;;;;;1.31;72.37;99595.38;1713149;82;21172;-39
2021/01/10 04:47:30;;;;;;;40.08;23.73;;;;;;;1.35;72.28;99600.15;1714469;82;21155;-39
2021/01/10 04:49:58;;;;;;;39.67;23.92;;;;;;;1.35;72.24;99602.28;1730707;82;21521;-40
2021/01/10 04:52:27;;;;;;;35.13;23.40;;;;;;;1.36;72.28;99605.17;1729849;82;21603;-40
2021/01/10 04:54:55;;;;;;;38.33;23.73;;;;;;;1.38;72.40;99608.91;1737641;82;21741;-39
2021/01/10 04:57:24;;;;;;;38.42;23.52;;;;;;;1.37;72.29;99613.45;1723361;82;21178;-39
2021/01/10 04:59:52;;;;;;;35.08;22.32;;;;;;;1.40;72.31;99612.08;1740281;82;21024;-40
2021/01/10 05:02:33;;;;;;;36.65;23.70;;;;;;;1.49;72.26;99608.45;1830384;76;22530;-40
2021/01/10 05:05:05;;;;;;;40.25;24.67;;;;;;;1.46;72.13;99614.90;1795235;77;21066;-40
2021/01/10 05:07:34;;;;;;;35.17;22.27;;;;;;;1.47;72.28;99609.81;1749236;80;21385;-39
2021/01/10 05:10:04;;;;;;;26.20;16.85;;;;;;;1.49;72.04;99610.33;1747483;80;21686;-40
2021/01/10 05:12:32;;;;;;;33.67;20.97;;;;;;;1.54;71.95;99607.56;1772534;80;21029;-41
2021/01/10 05:15:01;;;;;;;36.65;22.55;;;;;;;1.50;71.98;99619.94;1750611;80;21011;-40
2021/01/10 05:17:31;;;;;;;34.20;23.18;;;;;;;1.46;72.13;99622.91;1768763;79;21028;-40
2021/01/10 05:20:00;;;;;;;36.25;23.25;;;;;;;1.48;72.17;99626.09;1725006;82;22361;-41
2021/01/10 05:22:28;;;;;;;34.35;23.38;;;;;;;1.51;72.14;99629.51;1751614;80;21161;-40
2021/01/10 05:25:12;;;;;;;36.53;23.15;;;;;;;1.51;72.14;99633.52;1710325;80;21055;-40
2021/01/10 05:27:40;;;;;;;34.27;21.40;;;;;;;1.49;72.26;99637.84;1750890;80;21033;-40
2021/01/10 05:30:11;;;;;;;36.38;22.50;;;;;;;1.54;72.07;99635.63;1747347;80;21139;-40
2021/01/10 05:32:39;;;;;;;32.78;20.62;;;;;;;1.56;72.06;99636.10;1748338;80;21168;-40
2021/01/10 05:35:10;;;;;;;32.70;22.07;;;;;;;1.55;72.08;99639.31;1711339;82;21198;-40
2021/01/10 05:37:38;;;;;;;;;;;;;;;1.53;72.18;99632.69;1718606;82;21166;-40
2021/01/10 05:40:08;;;;;;;32.03;20.68;;;;;;;1.54;72.26;99638.30;1710972;83;21350;-40
2021/01/10 05:42:35;;;;;;;34.90;22.50;;;;;;;1.54;72.27;99638.30;1735946;80;21226;-40
2021/01/10 05:45:07;;;;;;;35.43;21.85;;;;;;;1.58;72.24;99641.42;1703420;82;21153;-40
2021/01/10 05:47:38;;;;;;;34.27;20.85;;;;;;;1.54;72.36;99648.98;1749933;80;21717;-40
2021/01/10 05:50:14;;;;;;;31.23;20.60;;;;;;;1.51;72.41;99654.89;1758885;79;21068;-40
2021/01/10 05:52:42;;;;;;;32.73;20.97;;;;;;;1.51;72.50;99656.22;1756461;80;21167;-40
2021/01/10 05:55:11;;;;;;;33.38;21.10;;;;;;;1.54;72.56;99663.67;1747174;80;21160;-40
2021/01/10 05:57:39;;;;;;;35.85;22.05;;;;;;;1.56;72.49;99660.16;1756954;80;22090;-40
2021/01/10 06:00:09;;;;;;;34.75;21.65;;;;;;;1.53;72.53;99660.75;1727419;82;21144;-40
2021/01/10 06:02:37;;;;;;;33.33;22.10;;;;;;;1.50;72.69;99662.68;1758395;80;21152;-40
2021/01/10 06:05:20;;;;;;;;;;;;;;;1.46;72.82;99664.32;1742111;81;21600;-40
2021/01/10 06:07:47;;;;;;;33.98;21.52;;;;;;;1.43;72.98;99660.91;1721306;82;20266;-40
2021/01/10 06:10:27;;;;;;;33.23;22.50;;;;;;;1.42;73.18;99669.46;1738996;81;22315;-40
2021/01/10 06:13:05;;;;;;;35.83;21.77;;;;;;;1.47;73.13;99669.38;1740145;81;21121;-40
2021/01/10 06:15:35;;;;;;;32.58;20.60;;;;;;;1.43;73.41;99679.06;1746033;80;21014;-40
2021/01/10 06:18:05;;;;;;;37.15;22.30;;;;;;;1.39;73.53;99675.94;1783391;78;21143;-39
2021/01/10 06:20:34;;;;;;;32.73;21.07;;;;;;;1.35;73.68;99684.28;1736194;81;21126;-40
2021/01/10 06:23:05;;;;;;;30.43;19.95;;;;;;;1.39;73.75;99687.42;1759123;81;21375;-40
2021/01/10 06:25:40;;;;;;;33.48;21.33;;;;;;;1.36;73.79;99689.31;1739304;79;21169;-40
2021/01/10 06:28:16;;;;;;;34.85;21.93;;;;;;;1.34;73.85;99692.04;1737421;81;21089;-40
2021/01/10 06:30:59;;;;;;;32.25;21.48;;;;;;;1.35;73.84;99688.30;1737486;81;21155;-40
2021/01/10 06:33:32;;;;;;;34.60;22.55;;;;;;;1.42;73.86;99694.84;1751637;80;21167;-40
2021/01/10 06:36:08;;;;;;;30.57;20.60;;;;;;;1.44;73.79;99694.56;1766834;80;21369;-41
2021/01/10 06:38:38;;;;;;;31.17;21.02;;;;;;;1.40;73.90;99698.36;1734768;82;21685;-40
2021/01/10 06:41:27;;;;;;;28.38;19.05;;;;;;;1.38;73.87;99698.38;1737164;82;21604;-41
2021/01/10 06:44:01;;;;;;;32.08;21.10;;;;;;;1.41;73.87;99696.45;1737306;81;21149;-40
2021/01/10 06:46:29;;;;;;;32.65;21.10;;;;;;;1.40;73.85;99700.23;1746236;79;21136;-40
2021/01/10 06:49:03;;;;;;;29.27;19.37;;;;;;;1.35;73.95;99711.80;1753488;79;21589;-40
2021/01/10 06:51:32;;;;;;;30.97;19.98;;;;;;;1.35;74.04;99716.34;1737896;81;21188;-40
2021/01/10 06:54:05;;;;;;;32.07;21.57;;;;;;;1.37;74.08;99719.50;1738018;82;21194;-40
2021/01/10 06:56:33;;;;;;;33.95;21.68;;;;;;;1.41;73.92;99722.63;1742340;81;21185;-40
2021/01/10 06:59:10;;;;;;;31.50;19.52;;;;;;;1.40;74.04;99724.28;1755468;81;21181;-40
2021/01/10 07:01:56;;;;;;;30.25;19.42;;;;;;;1.37;74.18;99728.84;1768163;81;21185;-41
2021/01/10 07:04:35;;;;;;;32.17;21.00;;;;;;;1.38;74.20;99727.23;1746833;81;21175;-40
2021/01/10 07:07:03;;;;;;;31.10;20.25;;;;;;;1.43;74.14;99729.03;1741754;81;21186;-40
2021/01/10 07:09:53;;;;;;;;;;;;;;;1.42;74.13;99730.11;1752822;81;21070;-40
2021/01/10 07:12:22;;;;;;;27.90;18.77;;;;;;;1.38;74.09;99726.43;1715797;82;20226;-41
2021/01/10 07:14:51;;;;;;;30.68;19.65;;;;;;;1.27;74.51;99731.12;1798652;79;21374;-40
2021/01/10 07:17:19;;;;;;;23.83;15.50;;;;;;;1.35;74.42;99736.38;1786610;79;21305;-39
2021/01/10 07:19:49;;;;;;;24.80;15.32;;;;;;;1.41;74.31;99740.00;1738929;81;21035;-39
2021/01/10 07:22:28;;;;;;;35.37;20.90;;;;;;;1.41;74.22;99731.98;1732888;82;21072;-40
2021/01/10 07:24:57;;;;;;;32.27;20.70;;;;;;;1.39;74.14;99737.38;1732204;82;21606;-39
2021/01/10 07:27:30;;;;;;;31.60;20.30;;;;;;;1.39;74.26;99741.38;1734190;82;21198;-39
2021/01/10 07:30:00;;;;;;;32.35;21.60;;;;;;;1.44;74.20;99746.66;1737229;81;21031;-39
2021/01/10 07:32:35;;;;;;;32.58;21.48;;;;;;;1.43;74.28;99747.73;1718641;81;21029;-40
2021/01/10 07:35:06;;;;;;;32.40;20.55;;;;;;;1.38;74.45;99751.27;1767934;81;21203;-40
2021/01/10 07:37:34;;;;;;;32.58;20.55;;;;;;;1.38;74.54;99753.14;1757697;81;21173;-40
2021/01/10 07:40:06;;;;;;;30.35;19.82;;;;;;;1.42;74.51;99757.62;1737302;82;21196;-40
2021/01/10 07:42:39;;;;;;;30.25;20.88;;;;;;;1.44;74.52;99751.99;1737866;81;21078;-40
2021/01/10 07:45:20;;;;;;;33.23;21.12;;;;;;;1.40;74.58;99753.66;1708378;82;21639;-41
2021/01/10 07:47:49;;;;;;;30.20;18.85;;;;;;;1.37;74.86;99745.67;1746036;81;21179;-40
2021/01/10 07:50:21;;;;;;;32.65;21.27;;;;;;;1.40;74.82;99750.98;1737657;82;21163;-40
2021/01/10 07:52:57;;;;;;;31.37;20.55;;;;;;;1.44;74.56;99754.12;1737433;82;21200;-39
2021/01/10 07:55:28;;;;;;;29.82;19.45;;;;;;;1.43;74.58;99753.07;1741476;80;21661;-39
2021/01/10 07:58:06;;;;;;;34.65;21.55;;;;;;;1.43;74.60;99755.20;1755467;79;21171;-39
2021/01/10 08:00:38;;;;;;;30.72;20.10;;;;;;;1.43;74.46;99752.53;1755081;79;21056;-40
2021/01/10 08:03:10;;;;;;;31.17;19.75;;;;;;;1.47;74.33;99757.55;1750665;79;21218;-39
2021/01/10 08:05:42;;;;;;;32.63;21.02;;;;;;;1.54;74.16;99755.86;1754582;80;23465;-40
2021/01/10 08:08:17;;;;;;;34.50;22.55;;;;;;;1.51;74.30;99761.76;1765704;79;21638;-39
2021/01/10 08:10:56;;;;;;;33.92;21.95;;;;;;;1.49;74.41;99759.40;1761984;79;21606;-38
2021/01/10 08:13:44;;;;;;;31.65;20.88;;;;;;;1.51;74.49;99759.89;1764660;81;21141;-39
2021/01/10 08:16:33;;;;;;;30.40;19.73;;;;;;;1.61;74.09;99763.75;1759516;81;21150;-39
2021/01/10 08:19:04;;;;;;;;;;;;;;;1.63;74.02;99771.48;1745866;81;22186;-40
2021/01/10 08:21:32;;;;;;;;;;;;;;;1.61;73.81;99766.95;1770339;80;20270;-40
2021/01/10 08:24:05;;;;;;;33.38;21.40;;;;;;;1.51;74.25;99761.76;1745294;81;20312;-40
2021/01/10 08:26:41;;;;;;;36.08;22.52;;;;;;;1.57;74.33;99767.29;1746557;81;21693;-40
2021/01/10 08:29:14;;;;;;;34.98;22.05;;;;;;;1.66;74.06;99765.55;1747773;81;21165;-41
2021/01/10 08:31:49;;;;;;;34.03;21.80;;;;;;;1.66;74.04;99762.88;1768080;81;21381;-40
2021/01/10 08:34:19;;;;;;;35.98;21.95;;;;;;;1.66;73.95;99766.34;1759072;79;21184;-40
2021/01/10 08:36:50;;;;;;;34.13;22.70;;;;;;;1.71;73.87;99763.59;1747608;79;21508;-40
2021/01/10 08:39:20;;;;;;;;;;;;;;;1.80;73.83;99771.74;1717556;82;21190;-39
2021/01/10 08:41:50;;;;;;;38.48;23.07;;;;;;;1.84;73.87;99769.30;1737421;81;20297;-39
2021/01/10 08:44:23;;;;;;;38.35;23.55;;;;;;;1.76;73.86;99764.05;1735513;82;21349;-40
2021/01/10 08:46:54;;;;;;;38.00;22.32;;;;;;;1.78;73.91;99767.78;1738198;80;21047;-41
2021/01/10 08:49:24;;;;;;;33.58;21.42;;;;;;;1.79;73.74;99774.19;1752574;80;21110;-40
2021/01/10 08:51:52;;;;;;;33.20;20.27;;;;;;;1.84;73.50;99766.05;1767986;81;21050;-41
2021/01/10 08:54:24;;;;;;;36.58;22.27;;;;;;;1.83;73.45;99765.83;1745922;81;21616;-41
2021/01/10 08:56:57;;;;;;;34.95;21.90;;;;;;;1.77;73.62;99772.87;1737523;81;21357;-41
2021/01/10 08:59:38;;;;;;;38.02;22.73;;;;;;;1.70;73.77;99770.02;1783611;79;21167;-41
2021/01/10 09:02:09;;;;;;;37.48;23.70;;;;;;;1.69;73.92;99771.66;1713292;82;21192;-41
2021/01/10 09:04:43;;;;;;;39.35;24.98;;;;;;;1.73;73.95;99770.00;1751462;80;21153;-41
2021/01/10 09:07:17;;;;;;;34.80;23.95;;;;;;;1.74;74.00;99758.99;1759302;80;21133;-40
2021/01/10 09:10:00;;;;;;;38.92;24.35;;;;;;;1.73;73.93;99768.66;1775323;78;21372;-41
2021/01/10 09:12:35;;;;;;;34.30;22.37;;;;;;;1.74;74.04;99768.34;1771530;80;21648;-41
2021/01/10 09:15:18;;;;;;;36.15;23.45;;;;;;;1.76;73.90;99760.05;1769984;80;21200;-40
2021/01/10 09:17:57;;;;;;;38.88;24.50;;;;;;;1.78;73.99;99767.25;1765397;80;21153;-41
2021/01/10 09:20:29;;;;;;;36.25;23.50;;;;;;;1.77;74.06;99762.18;1748115;82;21184;-41
2021/01/10 09:22:57;;;;;;;35.08;22.10;;;;;;;1.77;74.20;99760.84;1765693;80;21659;-41
2021/01/10 09:25:25;;;;;;;37.00;23.62;;;;;;;1.79;73.99;99759.48;1750982;80;21046;-41
2021/01/10 09:28:17;;;;;;;40.00;24.92;;;;;;;1.83;73.84;99753.00;1723842;82;21176;-41
2021/01/10 09:30:55;;;;;;;29.77;19.23;;;;;;;1.81;73.95;99753.28;1779213;80;21454;-40
2021/01/10 09:33:29;;;;;;;37.00;22.77;;;;;;;1.76;74.09;99752.03;1754180;80;21769;-41
2021/01/10 09:35:59;;;;;;;33.65;21.87;;;;;;;1.78;74.21;99752.55;1777104;80;21543;-41
2021/01/10 09:38:29;;;;;;;36.38;22.32;;;;;;;1.84;73.93;99759.38;1764801;80;21968;-41
2021/01/10 09:41:15;;;;;;;34.40;22.55;;;;;;;1.85;73.82;99759.63;1747991;80;21427;-41
2021/01/10 09:43:52;;;;;;;35.65;22.50;;;;;;;1.82;73.94;99758.89;1759041;80;21415;-41
2021/01/10 09:46:38;;;;;;;36.77;23.45;;;;;;;1.82;74.18;99758.09;1778953;80;21157;-41
2021/01/10 09:49:19;;;;;;;30.95;21.60;;;;;;;1.88;74.17;99761.74;1779138;80;21803;-41
2021/01/10 09:51:52;;;;;;;32.20;20.50;;;;;;;1.98;73.94;99764.25;1743376;80;21062;-41
2021/01/10 09:54:29;;;;;;;32.90;21.87;;;;;;;2.00;73.80;99764.73;1748205;82;21644;-41
2021/01/10 09:57:00;;;;;;;33.88;22.73;;;;;;;1.99;73.84;99756.45;1749125;80;22160;-41
2021/01/10 10:00:04;;;;;;;33.65;21.90;;;;;;;1.97;73.75;99765.88;1771731;80;21165;-40
2021/01/10 10:02:37;;;;;;;35.50;22.15;;;;;;;1.98;73.68;99762.91;1774763;80;21584;-40
2021/01/10 10:05:13;;;;;;;35.50;22.80;;;;;;;2.04;73.65;99763.05;1754417;80;21223;-40
2021/01/10 10:07:47;;;;;;;38.00;23.35;;;;;;;2.05;73.60;99761.19;1751308;81;21150;-40
2021/01/10 10:10:27;;;;;;;30.62;20.62;;;;;;;2.04;73.56;99759.05;1747821;81;21169;-40
2021/01/10 10:12:59;;;;;;;;;;;;;;;2.05;73.81;99761.19;1749019;81;21110;-40
2021/01/10 10:15:37;;;;;;;32.85;21.50;;;;;;;2.10;73.62;99760.56;1752930;80;21198;-40
2021/01/10 10:18:13;;;;;;;32.78;21.50;;;;;;;2.11;73.57;99762.15;1751996;81;21734;-40
2021/01/10 10:20:41;;;;;;;35.43;23.22;;;;;;;2.17;73.44;99751.63;1727504;80;21110;-41
2021/01/10 10:23:15;;;;;;;35.95;23.35;;;;;;;2.21;73.28;99751.02;1739867;81;21583;-41
2021/01/10 10:25:47;;;;;;;33.95;20.90;;;;;;;2.21;73.07;99755.83;1738506;81;21110;-41
2021/01/10 10:28:16;;;;;;;33.80;22.27;;;;;;;2.21;73.21;99753.70;1752297;81;21205;-41
2021/01/10 10:30:46;;;;;;;33.48;22.32;;;;;;;2.27;73.07;99747.97;1765309;81;21186;-39
2021/01/10 10:33:16;;;;;;;32.33;22.32;;;;;;;2.38;72.81;99754.70;1754143;81;21700;-39
2021/01/10 10:35:46;;;;;;;32.48;21.20;;;;;;;2.42;72.51;99743.66;1738247;81;21615;-40
2021/01/10 10:38:15;;;;;;;31.73;20.32;;;;;;;2.44;72.34;99744.17;1737977;81;21217;-40
2021/01/10 10:40:46;;;;;;;36.17;22.82;;;;;;;2.43;72.21;99741.78;1737562;82;21208;-41
2021/01/10 10:43:14;;;;;;;34.25;22.62;;;;;;;2.40;72.15;99739.70;1737822;81;21141;-40
2021/01/10 10:45:43;;;;;;;33.55;21.93;;;;;;;2.45;72.25;99739.61;1738823;81;21060;-38
2021/01/10 10:48:11;;;;;;;33.08;21.93;;;;;;;2.52;71.84;99746.69;1738348;81;21186;-40
2021/01/10 10:50:40;;;;;;;35.45;23.18;;;;;;;2.55;71.45;99742.10;1744360;81;21150;-40
2021/01/10 10:53:27;;;;;;;30.30;19.90;;;;;;;2.56;71.69;99745.83;1736565;81;21201;-39
2021/01/10 10:55:56;;;;;;;34.58;22.55;;;;;;;2.55;71.65;99745.57;1743518;81;21770;-39
2021/01/10 10:58:25;;;;;;;33.75;22.07;;;;;;;2.55;71.54;99740.22;1737698;81;21067;-40
2021/01/10 11:00:54;;;;;;;31.55;20.65;;;;;;;2.61;71.40;99738.24;1744759;81;21627;-40
2021/01/10 11:03:23;;;;;;;31.23;21.37;;;;;;;2.73;71.22;99747.89;1741211;82;21192;-40
2021/01/10 11:05:52;;;;;;;31.33;21.30;;;;;;;2.79;70.50;99740.56;1745854;80;21372;-40
2021/01/10 11:08:21;;;;;;;33.70;21.15;;;;;;;2.76;70.49;99742.50;1745730;82;21166;-40
2021/01/10 11:10:49;;;;;;;31.27;20.97;;;;;;;2.71;70.23;99741.27;1745592;82;21191;-40
2021/01/10 11:13:17;;;;;;;33.73;20.92;;;;;;;2.69;70.39;99741.55;1773120;80;21650;-40
2021/01/10 11:15:47;;;;;;;32.53;21.12;;;;;;;2.70;70.02;99748.50;1753945;80;21180;-40
2021/01/10 11:18:15;;;;;;;26.33;15.83;;;;;;;2.71;70.09;99743.38;1712461;83;21450;-39
2021/01/10 11:20:50;;;;;;;33.35;21.07;;;;;;;2.76;69.45;99747.86;1683701;83;21728;-40
2021/01/10 11:23:18;;;;;;;34.83;21.42;;;;;;;2.34;69.68;99688.17;1691286;83;21177;-41
2021/01/10 11:25:49;;;;;;;33.42;21.75;;;;;;;2.69;69.68;99744.77;1687729;83;21181;-40
2021/01/10 11:28:17;;;;;;;31.48;20.62;;;;;;;2.62;69.71;99743.28;1710822;83;21145;-40
2021/01/10 11:30:45;;;;;;;31.62;20.62;;;;;;;2.60;69.91;99750.03;1718670;82;21342;-40
2021/01/10 11:33:14;;;;;;;32.93;21.02;;;;;;;2.64;70.04;99751.02;1745811;80;21187;-39
2021/01/10 11:35:43;;;;;;;31.33;20.30;;;;;;;2.73;69.91;99755.92;1746227;80;21136;-40
2021/01/10 11:38:11;;;;;;;30.40;20.97;;;;;;;2.80;69.76;99753.66;1761127;80;21190;-39
2021/01/10 11:40:41;;;;;;;34.98;23.38;;;;;;;2.86;69.49;99755.66;1773237;80;21698;-41
2021/01/10 11:43:09;;;;;;;33.98;21.23;;;;;;;2.82;69.48;99751.45;1753528;80;22292;-38
2021/01/10 11:45:39;;;;;;;35.23;20.80;;;;;;;2.77;69.34;99752.90;1758866;80;21650;-39
2021/01/10 11:48:08;;;;;;;32.10;20.75;;;;;;;2.76;69.40;99759.91;1739305;80;21150;-39
2021/01/10 11:50:41;;;;;;;30.88;20.17;;;;;;;2.80;69.52;99763.03;1737252;80;21223;-40
2021/01/10 11:53:12;;;;;;;34.35;22.07;;;;;;;2.82;69.31;99759.48;1759433;80;21148;-40